createdAt,value
2019-04-21T00:03:40.209Z,10.23
2019-04-21T00:09:58.284Z,10.00
2019-04-21T00:15:53.990Z,10.20
2019-04-21T00:22:07.695Z,10.60
2019-04-21T00:28:30.329Z,10.70
2019-04-21T00:34:13.274Z,11.07
2019-04-21T00:40:41.485Z,11.00
2019-04-21T00:46:44.636Z,10.63
2019-04-21T00:53:32.047Z,11.67
2019-04-21T00:59:34.407Z,10.90
2019-04-21T01:05:43.949Z,10.97
2019-04-21T01:11:44.453Z,11.20
2019-04-21T01:17:53.259Z,11.67
2019-04-21T01:23:38.156Z,11.17
2019-04-21T01:30:10.101Z,11.30
2019-04-21T01:36:08.416Z,11.83
2019-04-21T01:42:21.434Z,12.90
2019-04-21T01:48:24.132Z,12.13
2019-04-21T01:55:00.641Z,12.60
2019-04-21T02:01:08.722Z,12.27
2019-04-21T02:07:20.590Z,12.70
2019-04-21T02:13:27.937Z,11.73
2019-04-21T02:19:31.211Z,12.40
2019-04-21T02:25:44.663Z,13.13
2019-04-21T02:32:14.854Z,13.10
2019-04-21T02:38:09.053Z,13.27
2019-04-21T02:44:24.019Z,12.93
2019-04-21T02:50:28.297Z,13.40
2019-04-21T02:56:46.093Z,12.73
2019-04-21T03:03:08.502Z,12.93
2019-04-21T03:09:11.791Z,13.77
2019-04-21T03:21:22.252Z,13.63
2019-04-21T03:45:56.903Z,12.67
2019-04-21T03:52:03.354Z,14.30
2019-04-21T04:04:44.141Z,14.10
2019-04-21T04:11:05.072Z,15.83
2019-04-21T04:17:04.668Z,16.70
2019-04-21T04:23:20.925Z,16.30
2019-04-21T04:35:34.167Z,16.80
2019-04-21T04:42:00.314Z,17.83
2019-04-21T04:47:59.386Z,17.93
2019-04-21T04:54:07.236Z,19.07
2019-04-21T05:00:19.789Z,18.93
2019-04-21T05:06:42.138Z,19.20
2019-04-21T05:12:36.473Z,19.43
2019-04-21T05:19:00.748Z,18.27
2019-04-21T05:24:44.274Z,19.93
2019-04-21T05:31:06.657Z,17.73
2019-04-21T05:37:21.734Z,19.73
2019-04-21T05:43:32.582Z,19.17
2019-04-21T05:49:38.291Z,19.30
2019-04-21T05:55:56.934Z,20.87
2019-04-21T06:02:07.448Z,20.17
2019-04-21T06:08:14.627Z,20.80
2019-04-21T06:14:25.391Z,19.43
2019-04-21T06:20:30.683Z,19.93
2019-04-21T06:45:25.212Z,20.77
2019-04-21T06:51:15.372Z,19.87
2019-04-21T06:57:16.822Z,20.13
2019-04-21T07:03:29.426Z,19.97
2019-04-21T07:09:31.872Z,19.53
2019-04-21T07:15:45.437Z,18.40
2019-04-21T07:22:03.074Z,18.57
2019-04-21T07:27:59.623Z,18.73
2019-04-21T07:34:08.564Z,17.33
2019-04-21T07:40:05.189Z,17.50
2019-04-21T07:46:10.138Z,16.07
2019-04-21T07:52:48.509Z,14.43
2019-04-21T07:58:53.776Z,14.80
2019-04-21T08:05:00.681Z,13.40
2019-04-21T08:11:02.974Z,14.10
2019-04-21T08:17:10.991Z,13.40
2019-04-21T08:23:21.582Z,13.60
2019-04-21T08:29:35.004Z,13.93
2019-04-21T08:41:45.149Z,15.03
2019-04-21T08:47:51.999Z,15.10
2019-04-21T08:54:07.575Z,16.07
2019-04-21T09:00:26.593Z,14.83
2019-04-21T09:06:43.190Z,14.53
2019-04-21T09:12:43.374Z,14.13
2019-04-21T09:18:40.426Z,14.40
2019-04-21T09:25:09.166Z,14.67
2019-04-21T09:30:49.943Z,13.90
2019-04-21T09:36:58.740Z,12.87
2019-04-21T09:43:03.176Z,11.30
2019-04-21T09:49:11.882Z,10.77
2019-04-21T09:55:18.906Z,11.20
2019-04-21T10:01:28.794Z,11.60
2019-04-21T10:07:34.940Z,10.70
2019-04-21T10:13:36.737Z,11.57
2019-04-21T10:19:42.609Z,13.70
2019-04-21T10:25:48.516Z,13.13
2019-04-21T10:31:54.586Z,13.37
2019-04-21T10:38:11.076Z,11.47
2019-04-21T10:44:09.354Z,12.03
2019-04-21T10:50:16.283Z,11.20
2019-04-21T10:56:30.606Z,12.03
2019-04-21T11:02:39.188Z,9.90
2019-04-21T11:08:48.563Z,11.10
2019-04-21T11:14:53.555Z,11.67
2019-04-21T11:21:00.424Z,11.93
2019-04-21T11:27:06.856Z,10.10
2019-04-21T11:33:13.122Z,9.60
2019-04-21T11:39:42.226Z,8.93
2019-04-21T11:45:42.174Z,8.68
2019-04-21T11:51:49.026Z,9.83
2019-04-21T11:57:56.462Z,8.90
2019-04-21T12:04:03.390Z,9.85
2019-04-21T12:10:09.545Z,10.68
2019-04-21T12:16:16.990Z,8.67
2019-04-21T12:22:28.207Z,9.27
2019-04-21T12:28:32.411Z,8.90
2019-04-21T12:34:39.743Z,10.10
2019-04-21T12:40:46.679Z,9.50
2019-04-21T12:46:56.111Z,9.27
2019-04-21T12:53:05.352Z,9.83
2019-04-21T12:59:12.153Z,9.20
2019-04-21T13:05:18.274Z,10.60
2019-04-21T13:11:25.512Z,9.90
2019-04-21T13:17:33.122Z,10.23
2019-04-21T13:23:41.141Z,9.40
2019-04-21T13:29:48.756Z,10.57
2019-04-21T13:35:59.121Z,9.90
2019-04-21T13:42:16.608Z,10.33
2019-04-21T13:48:14.881Z,9.40
2019-04-21T13:54:21.905Z,9.23
2019-04-21T14:00:29.605Z,9.70
2019-04-21T14:06:36.355Z,9.60
2019-04-21T14:12:42.710Z,8.43
2019-04-21T14:18:49.624Z,9.87
2019-04-21T14:24:56.316Z,10.23
2019-04-21T14:31:04.264Z,10.00
2019-04-21T14:37:11.043Z,9.87
2019-04-21T14:43:18.492Z,9.37
2019-04-21T14:49:55.468Z,8.60
2019-04-21T14:56:03.712Z,9.27
2019-04-21T15:02:11.754Z,8.87
2019-04-21T15:08:19.089Z,10.07
2019-04-21T15:14:26.256Z,9.73
2019-04-21T15:20:34.062Z,9.73
2019-04-21T15:26:44.190Z,8.10
2019-04-21T15:32:51.067Z,7.23
2019-04-21T15:38:58.040Z,8.17
2019-04-21T15:45:06.716Z,8.43
2019-04-21T15:51:13.622Z,8.70
2019-04-21T15:57:36.121Z,8.47
2019-04-21T16:03:42.844Z,8.60
2019-04-21T16:09:50.097Z,9.03
2019-04-21T16:15:56.753Z,7.80
2019-04-21T16:22:03.785Z,7.20
2019-04-21T16:28:13.351Z,7.80
2019-04-21T16:34:19.959Z,7.60
2019-04-21T16:40:27.586Z,8.97
2019-04-21T16:46:35.723Z,8.10
2019-04-21T16:53:10.263Z,8.50
2019-04-21T16:59:24.485Z,8.13
2019-04-21T17:05:32.135Z,11.90
2019-04-21T17:11:41.574Z,10.77
2019-04-21T17:18:04.252Z,7.63
2019-04-21T17:23:54.829Z,7.27
2019-04-21T17:30:01.223Z,6.83
2019-04-21T17:36:09.232Z,6.87
2019-04-21T17:42:28.911Z,7.23
2019-04-21T17:48:25.049Z,7.13
2019-04-21T17:54:42.935Z,6.90
2019-04-21T18:01:10.983Z,7.40
2019-04-21T18:07:34.934Z,6.73
2019-04-21T18:13:26.538Z,6.43
2019-04-21T18:19:36.383Z,7.60
2019-04-21T18:25:51.908Z,6.53
2019-04-21T18:31:50.444Z,6.47
2019-04-21T18:38:08.011Z,6.58
2019-04-21T18:44:34.605Z,6.70
2019-04-21T18:50:46.060Z,6.87
2019-04-21T18:56:52.615Z,6.83
2019-04-21T19:02:56.041Z,6.92
2019-04-21T19:09:14.998Z,6.80
2019-04-21T19:15:20.025Z,6.90
2019-04-21T19:21:28.000Z,6.57
2019-04-21T19:27:43.949Z,7.17
2019-04-21T19:33:57.373Z,6.95
2019-04-21T19:40:05.704Z,7.20
2019-04-21T19:46:18.041Z,7.27
2019-04-21T19:52:19.262Z,7.37
2019-04-21T19:58:20.619Z,8.20
2019-04-21T20:04:31.718Z,8.53
2019-04-21T20:10:50.233Z,8.83
2019-04-21T20:16:54.700Z,9.43
2019-04-21T20:22:50.229Z,10.03
2019-04-21T20:29:05.522Z,13.23
2019-04-21T20:35:25.015Z,23.03
2019-04-21T20:41:22.706Z,14.47
2019-04-21T20:47:25.576Z,17.90
2019-04-21T20:53:41.027Z,14.90
2019-04-21T20:59:46.224Z,13.23
2019-04-21T21:05:53.247Z,13.10
2019-04-21T21:12:25.313Z,14.10
2019-04-21T21:18:26.781Z,11.90
2019-04-21T21:24:31.222Z,12.37
2019-04-21T21:30:29.973Z,15.07
2019-04-21T21:36:41.830Z,11.70
2019-04-21T21:42:35.388Z,12.33
2019-04-21T21:48:51.661Z,11.23
2019-04-21T21:54:45.955Z,10.70
2019-04-21T22:01:00.471Z,11.53
2019-04-21T22:07:11.198Z,12.90
2019-04-21T22:13:17.779Z,10.57
2019-04-21T22:19:48.911Z,11.00
2019-04-21T22:25:33.850Z,13.67
2019-04-21T22:31:40.836Z,11.23
2019-04-21T22:37:58.030Z,10.93
2019-04-21T22:43:54.209Z,12.43
2019-04-21T22:50:00.568Z,12.30
2019-04-21T22:56:14.880Z,12.47
2019-04-21T23:02:21.068Z,12.27
2019-04-21T23:08:26.589Z,13.37
2019-04-21T23:14:33.887Z,13.70
2019-04-21T23:20:53.657Z,14.20
2019-04-21T23:26:55.204Z,15.53
2019-04-21T23:32:59.684Z,17.73
2019-04-21T23:39:07.017Z,17.70
2019-04-21T23:45:12.200Z,15.90
2019-04-21T23:51:33.303Z,17.83
2019-04-21T23:57:32.602Z,17.70
